Time;durP1;ratioP1;P1;durP2;ratioP2;P2;SDS_P1;SDS_P2;PMS_P1;PMS_P2;Temp;Humidity;BMP_temperature;BMP_pressure;BME280_temperature;BME280_humidity;BME280_pressure;Samples;Min_cycle;Max_cycle;Signal;HPM_P1;HPM_P2
2023/08/06 00:00:24;;;;;;;3.13;2.42;;;16.90;99.90;;;;;;5015050;28;20042;-78
2023/08/06 00:03:10;;;;;;;4.35;2.50;;;16.90;99.90;;;;;;5041480;28;20191;-78
2023/08/06 00:05:56;;;;;;;4.40;2.80;;;16.90;99.90;;;;;;4994537;28;20052;-78
2023/08/06 00:08:42;;;;;;;5.93;2.42;;;16.80;99.90;;;;;;5015737;28;20041;-80
2023/08/06 00:11:28;;;;;;;3.72;2.60;;;16.90;99.90;;;;;;5001176;28;20080;-79
2023/08/06 00:14:17;;;;;;;4.55;2.60;;;16.80;99.90;;;;;;5014255;28;20045;-79
2023/08/06 00:17:05;;;;;;;;;;;16.90;99.90;;;;;;4975085;28;20134;-76
2023/08/06 00:19:51;;;;;;;4.05;2.50;;;16.90;99.90;;;;;;5028950;28;20348;-75
2023/08/06 00:22:37;;;;;;;3.88;2.55;;;16.80;99.90;;;;;;5013488;28;20045;-75
2023/08/06 00:25:23;;;;;;;4.43;2.55;;;16.80;99.90;;;;;;5014112;28;20041;-75
2023/08/06 00:28:09;;;;;;;3.33;2.35;;;16.80;99.90;;;;;;5003896;28;20036;-75
2023/08/06 00:30:55;;;;;;;4.00;2.60;;;16.80;99.90;;;;;;5028068;28;20473;-75
2023/08/06 00:33:41;;;;;;;3.20;2.40;;;16.90;99.90;;;;;;4993661;28;20111;-75
2023/08/06 00:36:27;;;;;;;5.03;2.95;;;16.80;99.90;;;;;;4990563;28;20513;-75
2023/08/06 00:39:13;;;;;;;3.63;2.67;;;16.80;99.90;;;;;;5013809;28;20052;-75
2023/08/06 00:41:59;;;;;;;4.97;2.58;;;16.80;99.90;;;;;;5013111;28;20508;-75
2023/08/06 00:44:45;;;;;;;2.95;2.10;;;16.80;99.90;;;;;;4989766;28;20041;-75
2023/08/06 00:47:31;;;;;;;4.35;2.20;;;16.80;99.90;;;;;;5000656;28;20080;-76
2023/08/06 00:50:18;;;;;;;3.63;2.20;;;16.80;99.90;;;;;;5001877;28;20331;-75
2023/08/06 00:53:03;;;;;;;3.53;2.10;;;16.80;99.90;;;;;;4995426;28;20048;-75
2023/08/06 00:55:52;;;;;;;3.60;1.90;;;16.80;99.90;;;;;;4998017;28;20052;-75
2023/08/06 00:58:38;;;;;;;5.53;2.45;;;16.80;99.90;;;;;;5001739;28;20281;-75
2023/08/06 01:01:24;;;;;;;2.80;1.85;;;16.80;99.90;;;;;;4998348;28;20052;-75
2023/08/06 01:04:10;;;;;;;4.50;2.10;;;16.80;99.90;;;;;;4989319;28;20436;-75
2023/08/06 01:07:03;;;;;;;3.33;2.30;;;16.90;99.90;;;;;;4988141;28;20049;-75
2023/08/06 01:10:07;;;;;;;3.25;2.28;;;16.80;99.90;;;;;;5002105;28;20747;-74
2023/08/06 01:13:11;;;;;;;2.70;1.92;;;16.80;99.90;;;;;;5016789;28;20045;-75
2023/08/06 01:15:57;;;;;;;3.38;2.10;;;16.80;99.90;;;;;;4990351;28;20564;-75
2023/08/06 01:18:46;;;;;;;3.95;1.85;;;16.80;99.90;;;;;;4996368;28;20152;-75
2023/08/06 01:21:32;;;;;;;3.55;1.77;;;16.80;99.90;;;;;;4987164;28;20394;-75
2023/08/06 01:24:18;;;;;;;2.55;1.67;;;16.70;99.90;;;;;;5004180;28;20439;-75
2023/08/06 01:27:06;;;;;;;4.13;1.92;;;16.70;99.90;;;;;;4999672;28;20128;-75
2023/08/06 01:29:55;;;;;;;;;;;16.70;99.90;;;;;;4978327;28;20486;-75
2023/08/06 01:32:44;;;;;;;4.18;2.00;;;16.80;99.90;;;;;;5017468;28;19924;-76
2023/08/06 01:35:30;;;;;;;4.07;1.90;;;16.70;99.90;;;;;;5009991;28;20041;-75
2023/08/06 01:38:16;;;;;;;4.18;2.10;;;16.80;99.90;;;;;;4992384;28;20045;-75
2023/08/06 01:41:02;;;;;;;3.88;2.10;;;16.70;99.90;;;;;;5019776;28;20037;-75
2023/08/06 01:43:48;;;;;;;3.83;2.30;;;16.60;99.90;;;;;;5031405;28;20377;-75
2023/08/06 01:46:34;;;;;;;3.28;2.30;;;16.60;99.90;;;;;;4996360;28;20037;-75
2023/08/06 01:49:20;;;;;;;5.68;2.75;;;16.60;99.90;;;;;;4989412;28;20549;-75
2023/08/06 01:52:06;;;;;;;3.45;2.70;;;16.50;99.90;;;;;;5002822;28;20132;-75
2023/08/06 01:54:52;;;;;;;5.18;2.47;;;16.60;99.90;;;;;;5018371;28;20333;-75
2023/08/06 01:57:38;;;;;;;4.00;2.60;;;16.60;99.90;;;;;;5004092;28;20240;-75
2023/08/06 02:00:24;;;;;;;5.35;2.83;;;16.50;99.90;;;;;;4996646;28;20046;-75
2023/08/06 02:03:10;;;;;;;4.45;2.33;;;16.50;99.90;;;;;;5003427;28;20434;-74
2023/08/06 02:05:56;;;;;;;5.05;2.83;;;16.50;99.90;;;;;;5016901;28;20041;-74
2023/08/06 02:08:42;;;;;;;4.85;2.58;;;16.50;99.90;;;;;;5016187;28;20466;-74
2023/08/06 02:11:28;;;;;;;4.90;3.20;;;16.50;99.90;;;;;;5016089;28;20046;-74
2023/08/06 02:14:14;;;;;;;4.53;2.85;;;16.50;99.90;;;;;;5016606;28;20045;-74
2023/08/06 02:17:00;;;;;;;5.78;2.97;;;16.40;99.90;;;;;;5003434;28;20049;-74
2023/08/06 02:19:46;;;;;;;4.25;2.80;;;16.40;99.90;;;;;;5016179;28;20397;-74
2023/08/06 02:22:33;;;;;;;6.32;3.08;;;16.40;99.90;;;;;;5015383;28;20052;-73
2023/08/06 02:25:19;;;;;;;4.65;3.00;;;16.40;99.90;;;;;;5003392;28;20080;-74
2023/08/06 02:28:05;;;;;;;4.95;3.15;;;16.40;99.90;;;;;;5020197;28;20462;-74
2023/08/06 02:30:51;;;;;;;6.40;3.33;;;16.30;99.90;;;;;;5016257;28;20049;-74
2023/08/06 02:33:37;;;;;;;7.38;3.38;;;16.40;99.90;;;;;;5015603;28;20056;-74
2023/08/06 02:36:23;;;;;;;4.88;2.97;;;16.30;99.90;;;;;;5002856;28;20071;-73
2023/08/06 02:39:09;;;;;;;4.70;3.47;;;16.40;99.90;;;;;;5016925;28;20056;-74
2023/08/06 02:41:55;;;;;;;4.30;3.65;;;16.40;99.90;;;;;;5030382;28;20045;-74
2023/08/06 02:44:41;;;;;;;4.80;3.45;;;16.30;99.90;;;;;;5014601;28;20049;-74
2023/08/06 02:47:27;;;;;;;3.83;3.25;;;16.40;99.90;;;;;;5015619;28;20046;-74
2023/08/06 02:50:13;;;;;;;5.30;3.38;;;16.30;99.90;;;;;;5013636;28;20049;-74
2023/08/06 02:52:59;;;;;;;4.38;3.30;;;16.30;99.90;;;;;;4985053;28;20054;-74
2023/08/06 02:55:46;;;;;;;4.45;3.40;;;16.30;99.90;;;;;;5005364;28;20156;-73
2023/08/06 02:58:32;;;;;;;4.38;3.40;;;16.30;99.90;;;;;;5002728;28;20103;-74
2023/08/06 03:01:18;;;;;;;7.68;3.72;;;16.30;99.90;;;;;;5015536;28;20045;-74
2023/08/06 03:04:04;;;;;;;4.53;3.55;;;16.30;99.90;;;;;;5005530;28;20060;-74
2023/08/06 03:06:50;;;;;;;6.30;4.07;;;16.30;99.90;;;;;;5002715;28;20060;-73
2023/08/06 03:09:36;;;;;;;7.35;3.88;;;16.30;99.90;;;;;;5017405;28;20052;-74
2023/08/06 03:12:22;;;;;;;3.28;2.85;;;16.30;99.90;;;;;;5033341;28;20037;-74
2023/08/06 03:15:09;;;;;;;5.65;3.70;;;16.20;99.90;;;;;;5000664;28;20048;-74
2023/08/06 03:17:56;;;;;;;5.30;3.30;;;16.20;99.90;;;;;;4985928;28;20081;-74
2023/08/06 03:20:42;;;;;;;5.47;3.85;;;16.20;99.90;;;;;;4988670;28;20124;-74
2023/08/06 03:23:28;;;;;;;5.88;4.00;;;16.20;99.90;;;;;;5014582;28;20434;-74
2023/08/06 03:26:13;;;;;;;6.18;3.78;;;16.20;99.90;;;;;;5004689;28;20072;-74
2023/08/06 03:28:59;;;;;;;5.40;4.18;;;16.20;99.90;;;;;;4986125;28;20754;-74
2023/08/06 03:31:47;;;;;;;7.25;3.97;;;16.20;99.90;;;;;;5000116;28;20053;-74
2023/08/06 03:34:32;;;;;;;7.13;4.22;;;16.20;99.90;;;;;;5012621;28;20041;-75
2023/08/06 03:37:18;;;;;;;6.15;4.10;;;16.10;99.90;;;;;;5030914;28;20041;-74
2023/08/06 03:40:05;;;;;;;6.00;4.45;;;16.10;99.90;;;;;;5007270;28;20079;-74
2023/08/06 03:42:51;;;;;;;5.50;4.45;;;16.10;99.90;;;;;;5017898;28;20041;-74
2023/08/06 03:45:37;;;;;;;7.82;4.90;;;16.10;99.90;;;;;;5018383;28;20315;-74
2023/08/06 03:48:23;;;;;;;6.82;4.30;;;16.10;99.90;;;;;;5031267;28;20037;-74
2023/08/06 03:51:09;;;;;;;6.85;4.55;;;16.10;99.90;;;;;;5017578;28;20146;-75
2023/08/06 03:53:55;;;;;;;5.07;4.50;;;16.10;99.90;;;;;;4984869;28;20053;-74
2023/08/06 03:56:41;;;;;;;6.70;4.10;;;16.10;99.90;;;;;;5007067;28;20048;-74
2023/08/06 03:59:28;;;;;;;5.80;4.45;;;16.10;99.90;;;;;;5005290;28;20053;-74
2023/08/06 04:02:14;;;;;;;7.38;4.30;;;16.10;99.90;;;;;;4990145;28;20049;-74
2023/08/06 04:05:01;;;;;;;5.47;4.25;;;16.20;99.90;;;;;;5011986;28;20053;-74
2023/08/06 04:07:47;;;;;;;7.47;4.22;;;16.20;99.90;;;;;;5008463;28;20124;-74
2023/08/06 04:10:33;;;;;;;7.93;5.22;;;16.20;99.90;;;;;;5017760;28;20144;-74
2023/08/06 04:13:19;;;;;;;6.47;4.30;;;16.20;99.90;;;;;;5029953;28;20381;-74
2023/08/06 04:16:05;;;;;;;9.82;4.93;;;16.20;99.90;;;;;;5011677;28;20050;-74
2023/08/06 04:18:51;;;;;;;8.80;4.22;;;16.20;99.90;;;;;;4984912;28;20072;-74
2023/08/06 04:21:37;;;;;;;6.75;4.30;;;16.20;99.90;;;;;;5016217;28;20135;-74
2023/08/06 04:24:23;;;;;;;5.97;3.92;;;16.20;99.90;;;;;;5029378;28;20045;-74
2023/08/06 04:27:09;;;;;;;8.57;4.35;;;16.10;99.90;;;;;;5029736;28;20053;-74
2023/08/06 04:29:56;;;;;;;7.55;4.70;;;16.10;99.90;;;;;;5002524;28;20045;-74
2023/08/06 04:32:42;;;;;;;8.73;4.32;;;16.10;99.90;;;;;;5031945;28;20080;-74
2023/08/06 04:35:28;;;;;;;10.13;4.85;;;16.10;99.90;;;;;;5002743;28;20037;-74
2023/08/06 04:38:14;;;;;;;8.73;4.70;;;16.10;99.90;;;;;;5017137;28;20038;-74
2023/08/06 04:41:00;;;;;;;7.78;5.07;;;16.10;99.90;;;;;;4990682;28;20079;-74
2023/08/06 04:43:46;;;;;;;7.47;4.53;;;16.10;99.90;;;;;;5005137;28;20433;-75
2023/08/06 04:46:32;;;;;;;5.88;4.20;;;16.10;99.90;;;;;;5005104;28;20044;-75
2023/08/06 04:49:22;;;;;;;7.70;4.68;;;16.10;99.90;;;;;;5019082;28;20109;-75
2023/08/06 04:52:08;;;;;;;8.13;4.00;;;16.10;99.90;;;;;;5004384;28;20120;-76
2023/08/06 04:54:54;;;;;;;6.95;4.32;;;16.10;99.90;;;;;;5017473;28;20125;-76
2023/08/06 04:57:40;;;;;;;6.97;5.05;;;16.10;99.90;;;;;;5016870;28;20095;-74
2023/08/06 05:00:26;;;;;;;7.15;4.40;;;16.10;99.90;;;;;;5015975;28;20046;-74
2023/08/06 05:03:12;;;;;;;8.38;4.63;;;16.10;99.90;;;;;;5002120;28;20044;-74
2023/08/06 05:05:58;;;;;;;8.20;4.32;;;16.10;99.90;;;;;;5001444;28;20029;-73
2023/08/06 05:08:44;;;;;;;8.15;5.20;;;16.10;99.90;;;;;;5030912;28;20865;-73
2023/08/06 05:11:30;;;;;;;9.85;5.25;;;16.10;99.90;;;;;;5015612;28;20041;-74
2023/08/06 05:14:16;;;;;;;7.22;4.78;;;16.10;99.90;;;;;;5003416;28;20418;-74
2023/08/06 05:17:04;;;;;;;5.68;4.63;;;16.10;99.90;;;;;;4990420;28;20060;-74
2023/08/06 05:19:50;;;;;;;6.65;4.25;;;16.10;99.90;;;;;;4975928;28;20064;-73
2023/08/06 05:22:36;;;;;;;6.05;4.63;;;16.10;99.90;;;;;;5003011;28;20049;-73
2023/08/06 05:25:22;;;;;;;11.00;4.85;;;16.10;99.90;;;;;;4993244;28;20139;-73
2023/08/06 05:28:09;;;;;;;5.70;4.00;;;16.20;99.90;;;;;;5030605;28;20040;-73
2023/08/06 05:30:55;;;;;;;8.87;4.07;;;16.20;99.90;;;;;;4997232;28;20043;-73
2023/08/06 05:33:41;;;;;;;5.57;4.30;;;16.20;99.90;;;;;;5002277;28;20276;-74
2023/08/06 05:36:27;;;;;;;7.53;4.20;;;16.20;99.90;;;;;;4996599;28;20061;-74
2023/08/06 05:39:13;;;;;;;7.90;3.85;;;16.20;99.90;;;;;;5002785;28;20540;-74
2023/08/06 05:41:59;;;;;;;6.63;4.20;;;16.20;99.90;;;;;;4997117;28;20046;-74
2023/08/06 05:44:45;;;;;;;7.13;4.18;;;16.30;99.90;;;;;;5017781;28;20454;-74
2023/08/06 05:47:31;;;;;;;5.45;3.85;;;16.20;99.90;;;;;;5016932;28;20099;-74
2023/08/06 05:50:17;;;;;;;5.35;4.03;;;16.30;99.90;;;;;;5007855;28;20500;-74
2023/08/06 05:53:03;;;;;;;8.23;3.30;;;16.30;99.90;;;;;;5019769;28;20048;-74
2023/08/06 05:55:49;;;;;;;5.75;3.53;;;16.40;99.90;;;;;;5033597;28;20472;-74
2023/08/06 05:58:35;;;;;;;4.95;3.33;;;16.40;99.90;;;;;;5015060;28;20056;-74
2023/08/06 06:01:21;;;;;;;6.18;3.75;;;16.40;99.90;;;;;;5018662;28;20040;-74
2023/08/06 06:04:07;;;;;;;4.40;3.15;;;16.40;99.90;;;;;;5018915;28;20103;-74
2023/08/06 06:06:53;;;;;;;6.20;3.70;;;16.40;99.90;;;;;;4987898;28;20040;-77
2023/08/06 06:09:39;;;;;;;6.18;4.00;;;16.40;99.90;;;;;;4999549;28;20045;-77
2023/08/06 06:12:26;;;;;;;5.88;3.65;;;16.40;99.90;;;;;;5011376;28;20041;-77
2023/08/06 06:15:12;;;;;;;7.07;4.40;;;16.50;99.90;;;;;;5008807;28;20048;-77
2023/08/06 06:17:58;;;;;;;4.00;3.40;;;16.40;99.90;;;;;;5000470;28;20054;-77
2023/08/06 06:20:44;;;;;;;5.47;3.90;;;16.50;99.90;;;;;;4988744;28;20047;-77
2023/08/06 06:23:30;;;;;;;6.55;4.40;;;16.50;99.90;;;;;;5012539;28;20706;-77
2023/08/06 06:26:16;;;;;;;6.10;3.65;;;16.50;99.90;;;;;;5019710;28;20047;-77
2023/08/06 06:29:02;;;;;;;7.07;4.07;;;16.40;99.90;;;;;;5030689;28;20037;-77
2023/08/06 06:31:48;;;;;;;6.13;4.35;;;16.50;99.90;;;;;;5019576;28;20099;-77
2023/08/06 06:34:34;;;;;;;5.95;4.10;;;16.50;99.90;;;;;;5019369;28;20046;-77
2023/08/06 06:37:20;;;;;;;4.60;3.60;;;16.50;99.90;;;;;;5036043;28;20065;-77
2023/08/06 06:40:06;;;;;;;8.30;3.60;;;16.60;99.90;;;;;;5021665;28;20114;-77
2023/08/06 06:42:52;;;;;;;5.00;3.10;;;16.60;99.90;;;;;;5020253;28;20378;-77
2023/08/06 06:45:38;;;;;;;5.05;3.17;;;16.60;99.90;;;;;;5015845;28;20037;-77
2023/08/06 06:48:26;;;;;;;5.72;2.88;;;16.60;99.90;;;;;;5007223;28;20048;-77
2023/08/06 06:51:12;;;;;;;;;;;16.70;99.90;;;;;;5022439;28;20377;-77
2023/08/06 06:53:58;;;;;;;4.25;2.60;;;16.70;99.90;;;;;;5019819;28;19913;-77
2023/08/06 06:56:44;;;;;;;5.97;2.70;;;16.70;99.90;;;;;;5019450;28;20092;-77
2023/08/06 06:59:30;;;;;;;6.47;3.55;;;16.80;99.90;;;;;;5035876;28;20488;-77
2023/08/06 07:02:16;;;;;;;5.88;2.75;;;16.80;99.90;;;;;;5039651;28;20052;-77
2023/08/06 07:05:02;;;;;;;5.80;2.90;;;16.80;99.90;;;;;;5020388;28;20041;-77
2023/08/06 07:07:48;;;;;;;5.78;2.83;;;16.90;99.90;;;;;;5007418;28;20065;-77
2023/08/06 07:10:34;;;;;;;4.20;2.67;;;16.90;99.90;;;;;;5007444;28;20033;-77
2023/08/06 07:13:20;;;;;;;4.32;2.60;;;17.00;99.90;;;;;;5020214;28;20037;-77
2023/08/06 07:16:06;;;;;;;5.13;2.58;;;17.00;99.90;;;;;;5013872;28;20073;-77
2023/08/06 07:18:53;;;;;;;4.35;2.20;;;17.00;99.90;;;;;;5005945;28;20474;-77
2023/08/06 07:21:39;;;;;;;2.90;2.35;;;17.10;99.90;;;;;;4986428;28;20052;-77
2023/08/06 07:24:25;;;;;;;2.92;2.03;;;17.10;99.90;;;;;;5005236;28;20049;-77
2023/08/06 07:27:11;;;;;;;4.35;2.40;;;17.10;99.90;;;;;;5019144;28;20041;-76
2023/08/06 07:29:58;;;;;;;3.38;1.77;;;17.10;99.90;;;;;;5020439;28;20042;-77
2023/08/06 07:32:44;;;;;;;3.67;1.92;;;17.10;99.90;;;;;;4973087;28;20038;-77
2023/08/06 07:35:30;;;;;;;4.47;2.00;;;17.10;99.90;;;;;;5000322;28;20133;-77
2023/08/06 07:38:16;;;;;;;3.90;2.13;;;17.20;99.90;;;;;;5025092;28;20045;-76
2023/08/06 07:41:02;;;;;;;2.97;1.88;;;17.20;99.90;;;;;;5005652;28;20051;-77
2023/08/06 07:43:49;;;;;;;3.47;2.17;;;17.20;99.90;;;;;;5018959;28;20560;-77
2023/08/06 07:46:35;;;;;;;3.85;2.00;;;17.20;99.90;;;;;;5005765;28;20095;-77
2023/08/06 07:49:21;;;;;;;3.90;1.90;;;17.30;99.90;;;;;;5033465;28;20757;-77
2023/08/06 07:52:08;;;;;;;3.40;2.28;;;17.40;99.90;;;;;;4999534;28;20084;-77
2023/08/06 07:54:54;;;;;;;5.20;2.47;;;17.40;99.90;;;;;;5019593;28;20048;-77
2023/08/06 07:57:40;;;;;;;5.78;2.58;;;17.40;99.90;;;;;;5005848;28;20041;-76
2023/08/06 08:00:26;;;;;;;3.72;2.22;;;17.40;99.90;;;;;;5018903;28;20069;-77
2023/08/06 08:03:13;;;;;;;3.85;2.35;;;17.40;99.90;;;;;;5013742;28;20049;-77
2023/08/06 08:05:59;;;;;;;3.95;2.15;;;17.50;99.90;;;;;;5019401;28;20084;-77
2023/08/06 08:08:46;;;;;;;6.22;2.92;;;17.60;99.90;;;;;;4987475;28;20049;-77
2023/08/06 08:11:32;;;;;;;4.85;2.58;;;17.60;99.90;;;;;;5032152;28;20175;-77
2023/08/06 08:14:18;;;;;;;4.78;2.55;;;17.70;99.90;;;;;;5031531;28;20494;-78
2023/08/06 08:17:05;;;;;;;6.07;2.50;;;17.70;99.90;;;;;;5003122;28;20041;-78
2023/08/06 08:19:51;;;;;;;3.88;2.47;;;17.80;99.90;;;;;;5004861;28;20052;-78
2023/08/06 08:22:37;;;;;;;3.90;2.33;;;17.80;99.90;;;;;;5030032;28;20049;-77
2023/08/06 08:25:23;;;;;;;3.17;2.30;;;17.90;99.90;;;;;;5010095;28;20051;-78
2023/08/06 08:28:09;;;;;;;3.80;2.45;;;18.00;99.90;;;;;;5001864;28;20118;-78
2023/08/06 08:30:55;;;;;;;3.58;2.13;;;18.00;99.90;;;;;;5002362;28;20034;-78
2023/08/06 08:33:41;;;;;;;2.72;2.22;;;18.10;99.90;;;;;;4998432;28;20073;-78
2023/08/06 08:36:27;;;;;;;3.17;2.10;;;18.20;99.90;;;;;;4987846;28;20049;-80
2023/08/06 08:39:13;;;;;;;2.88;2.00;;;18.30;99.90;;;;;;5001164;28;20113;-80
2023/08/06 08:41:59;;;;;;;3.47;2.65;;;18.30;99.90;;;;;;4989337;28;20549;-78
2023/08/06 08:44:45;;;;;;;3.65;2.42;;;18.40;99.90;;;;;;5006801;28;20068;-78
2023/08/06 08:47:31;;;;;;;4.55;2.17;;;18.30;99.90;;;;;;5020011;28;20122;-77
2023/08/06 08:50:19;;;;;;;3.95;2.78;;;18.30;99.90;;;;;;5004008;28;20489;-79
2023/08/06 08:53:05;;;;;;;3.60;2.20;;;18.40;99.90;;;;;;4993198;28;20080;-78
2023/08/06 08:55:51;;;;;;;3.03;2.13;;;18.50;99.90;;;;;;4988890;28;20104;-78
2023/08/06 08:58:37;;;;;;;4.95;2.63;;;18.50;99.90;;;;;;5014101;28;20052;-77
2023/08/06 09:01:23;;;;;;;5.45;2.42;;;18.60;99.90;;;;;;5017317;28;20351;-76
2023/08/06 09:04:09;;;;;;;3.35;2.10;;;18.70;99.90;;;;;;5018550;28;20504;-78
2023/08/06 09:06:55;;;;;;;4.68;2.17;;;18.70;99.90;;;;;;5006640;28;20041;-77
2023/08/06 09:09:41;;;;;;;2.63;1.65;;;18.70;99.90;;;;;;4971967;28;20045;-77
2023/08/06 09:12:27;;;;;;;3.25;1.73;;;18.90;99.90;;;;;;4991097;28;20389;-78
2023/08/06 09:15:13;;;;;;;3.30;2.10;;;19.00;99.90;;;;;;5019770;28;20120;-79
2023/08/06 09:17:59;;;;;;;3.72;1.90;;;19.00;99.90;;;;;;5020709;28;20111;-78
2023/08/06 09:20:45;;;;;;;2.30;1.83;;;19.10;99.90;;;;;;4993376;28;20373;-79
2023/08/06 09:23:33;;;;;;;3.72;2.05;;;19.10;99.90;;;;;;5007195;28;20056;-78
2023/08/06 09:26:18;;;;;;;4.63;2.22;;;19.10;99.90;;;;;;5011112;28;20095;-77
2023/08/06 09:29:06;;;;;;;4.45;1.90;;;19.10;99.90;;;;;;5019114;28;20038;-77
2023/08/06 09:31:53;;;;;;;2.75;1.80;;;19.20;99.90;;;;;;4997309;28;20438;-77
2023/08/06 09:34:41;;;;;;;3.15;1.70;;;19.20;99.90;;;;;;4999162;28;20049;-78
2023/08/06 09:37:35;;;;;;;2.92;1.83;;;19.20;99.90;;;;;;4982672;28;20042;-78
2023/08/06 09:40:28;;;;;;;1.80;1.50;;;19.30;99.90;;;;;;5000751;28;20053;-78
2023/08/06 09:43:14;;;;;;;2.83;1.80;;;19.40;99.90;;;;;;5002353;28;20072;-78
2023/08/06 09:45:59;;;;;;;2.95;1.75;;;19.30;99.90;;;;;;5013513;28;20046;-78
2023/08/06 09:48:46;;;;;;;2.05;1.40;;;19.20;99.90;;;;;;5023058;28;20033;-78
2023/08/06 09:51:32;;;;;;;1.70;1.33;;;19.20;99.90;;;;;;5022996;28;20483;-79
2023/08/06 09:54:19;;;;;;;2.47;1.50;;;19.30;99.90;;;;;;5001071;28;20055;-75
2023/08/06 09:57:05;;;;;;;3.53;1.75;;;19.40;99.90;;;;;;4981040;28;20049;-75
2023/08/06 09:59:51;;;;;;;1.95;1.58;;;19.50;99.90;;;;;;4992080;28;20037;-75
2023/08/06 10:02:40;;;;;;;6.68;1.95;;;19.60;99.90;;;;;;5007116;28;20046;-74
2023/08/06 10:05:26;;;;;;;1.75;1.40;;;19.70;99.90;;;;;;4986787;28;20498;-74
2023/08/06 10:08:12;;;;;;;2.28;1.30;;;19.60;99.90;;;;;;4989409;28;20041;-74
2023/08/06 10:10:58;;;;;;;1.73;1.30;;;19.70;99.90;;;;;;4981057;28;20046;-74
2023/08/06 10:13:44;;;;;;;4.10;1.48;;;19.80;99.90;;;;;;5000028;28;20477;-74
2023/08/06 10:16:30;;;;;;;6.65;1.60;;;19.90;99.90;;;;;;4991513;28;20037;-75
2023/08/06 10:19:16;;;;;;;2.15;1.60;;;20.20;99.90;;;;;;4986719;28;20871;-75
2023/08/06 10:22:29;;;;;;;4.57;1.52;;;20.10;99.90;;;;;;5011530;28;20120;-75
2023/08/06 10:25:19;;;;;;;4.03;1.33;;;19.90;99.90;;;;;;5007760;28;20046;-75
2023/08/06 10:28:15;;;;;;;2.15;1.38;;;19.80;99.90;;;;;;5008231;28;20038;-75
2023/08/06 10:31:04;;;;;;;3.40;1.30;;;19.60;99.90;;;;;;4997288;28;20104;-75
2023/08/06 10:33:50;;;;;;;2.92;1.23;;;19.80;99.90;;;;;;5011197;28;20103;-74
2023/08/06 10:36:36;;;;;;;2.10;1.50;;;20.00;99.90;;;;;;4992487;28;20050;-75
2023/08/06 10:39:22;;;;;;;3.78;1.40;;;20.40;99.90;;;;;;4995466;28;20046;-73
2023/08/06 10:42:20;;;;;;;3.50;1.50;;;20.50;99.90;;;;;;4995217;28;20058;-74
2023/08/06 10:45:16;;;;;;;3.15;1.30;;;20.50;99.90;;;;;;4997353;28;20112;-74
2023/08/06 10:48:02;;;;;;;3.65;1.50;;;20.50;99.90;;;;;;5007327;28;20493;-74
2023/08/06 10:50:48;;;;;;;5.25;1.40;;;20.50;99.90;;;;;;5005007;28;20739;-74
2023/08/06 10:53:34;;;;;;;5.07;1.60;;;20.60;99.90;;;;;;4996523;28;20042;-74
2023/08/06 10:56:23;;;;;;;3.42;1.20;;;20.80;99.90;;;;;;4993614;28;20049;-74
2023/08/06 10:59:10;;;;;;;1.95;1.38;;;21.00;99.90;;;;;;4982624;28;20050;-74
2023/08/06 11:01:56;;;;;;;5.15;1.45;;;21.00;99.90;;;;;;4995092;28;20471;-75
2023/08/06 11:04:42;;;;;;;2.20;1.58;;;21.00;99.90;;;;;;4985007;28;20474;-75
2023/08/06 11:07:30;;;;;;;2.63;1.20;;;20.80;99.90;;;;;;5009794;28;20088;-74
2023/08/06 11:10:16;;;;;;;3.20;1.60;;;20.90;99.90;;;;;;4994996;28;20883;-75
2023/08/06 11:13:02;;;;;;;2.75;1.45;;;21.20;99.90;;;;;;5008315;28;20714;-74
2023/08/06 11:15:48;;;;;;;3.35;1.40;;;21.50;99.90;;;;;;4996446;28;20052;-75
2023/08/06 11:18:34;;;;;;;4.32;1.67;;;21.70;99.90;;;;;;5010667;28;20053;-75
2023/08/06 11:21:21;;;;;;;3.20;1.90;;;21.70;99.90;;;;;;4999129;28;20034;-75
2023/08/06 11:24:07;;;;;;;4.40;1.83;;;21.20;99.90;;;;;;4994549;28;20049;-75
2023/08/06 11:26:53;;;;;;;1.83;1.33;;;21.00;99.90;;;;;;4978330;28;20034;-75
2023/08/06 11:29:40;;;;;;;3.13;1.30;;;20.90;99.90;;;;;;4977137;28;20499;-74
2023/08/06 11:32:27;;;;;;;3.80;1.83;;;20.90;99.90;;;;;;5010077;28;20540;-75
2023/08/06 11:35:14;;;;;;;3.65;1.65;;;21.10;99.90;;;;;;5008590;28;20067;-75
2023/08/06 11:38:00;;;;;;;3.97;1.50;;;21.20;99.90;;;;;;4988915;28;20037;-73
2023/08/06 11:40:50;;;;;;;3.08;1.80;;;21.40;99.90;;;;;;4994297;28;20419;-73
2023/08/06 11:43:36;;;;;;;3.35;1.70;;;21.70;99.90;;;;;;4995686;28;20494;-73
2023/08/06 11:46:23;;;;;;;4.93;1.65;;;21.80;99.90;;;;;;4996778;28;20046;-73
2023/08/06 11:49:09;;;;;;;5.00;1.48;;;22.00;99.90;;;;;;5007670;28;20034;-73
2023/08/06 11:51:55;;;;;;;2.17;1.50;;;22.20;99.90;;;;;;4987130;28;20092;-73
2023/08/06 11:54:41;;;;;;;3.58;1.80;;;22.30;99.90;;;;;;5007183;28;20038;-73
2023/08/06 11:57:32;;;;;;;1.75;1.30;;;22.30;99.90;;;;;;5011399;28;20249;-74
2023/08/06 12:00:19;;;;;;;3.38;1.40;;;22.30;99.90;;;;;;4980317;28;20038;-74
2023/08/06 12:03:05;;;;;;;2.33;1.50;;;22.40;99.90;;;;;;4999821;28;20049;-74
2023/08/06 12:05:53;;;;;;;2.00;1.45;;;22.50;99.90;;;;;;5010746;28;20152;-74
2023/08/06 12:08:41;;;;;;;1.67;1.40;;;22.60;99.90;;;;;;5008470;28;20044;-74
2023/08/06 12:11:27;;;;;;;2.90;1.70;;;22.80;99.90;;;;;;4988275;28;20809;-74
2023/08/06 12:14:13;;;;;;;1.65;1.20;;;23.00;99.90;;;;;;5007332;28;20038;-74
2023/08/06 12:17:00;;;;;;;1.92;1.40;;;22.70;99.90;;;;;;4982464;28;20053;-74
2023/08/06 12:19:49;;;;;;;2.83;1.35;;;22.70;99.90;;;;;;4983243;28;20754;-74
2023/08/06 12:22:35;;;;;;;1.58;1.30;;;22.50;99.90;;;;;;5004622;28;20434;-74
2023/08/06 12:25:21;;;;;;;2.20;1.58;;;22.00;99.90;;;;;;4982373;28;20042;-74
2023/08/06 12:28:12;;;;;;;2.90;1.15;;;21.90;99.90;;;;;;5009947;28;20540;-74
2023/08/06 12:30:58;;;;;;;2.97;1.33;;;21.90;99.90;;;;;;5009581;28;20041;-74
2023/08/06 12:33:44;;;;;;;1.92;1.27;;;22.10;99.90;;;;;;5010278;28;20479;-73
2023/08/06 12:36:31;;;;;;;2.92;1.58;;;22.50;99.90;;;;;;4995274;28;20061;-73
2023/08/06 12:39:17;;;;;;;3.90;1.52;;;22.80;99.90;;;;;;4988816;28;20336;-73
2023/08/06 12:42:04;;;;;;;1.52;1.30;;;23.00;99.90;;;;;;4982354;28;20042;-73
2023/08/06 12:44:50;;;;;;;3.35;1.40;;;23.30;99.90;;;;;;5004898;28;20124;-74
2023/08/06 12:47:36;;;;;;;3.03;1.42;;;23.30;99.90;;;;;;4992140;28;20514;-73
2023/08/06 12:50:22;;;;;;;2.17;1.48;;;23.20;99.90;;;;;;4996056;28;20100;-75
2023/08/06 12:53:08;;;;;;;3.55;1.70;;;22.90;99.90;;;;;;4984888;28;20538;-77
2023/08/06 12:55:54;;;;;;;2.13;1.40;;;22.80;99.90;;;;;;4974345;28;20046;-77
2023/08/06 12:58:41;;;;;;;2.75;1.40;;;22.70;99.90;;;;;;4988048;28;20129;-77
2023/08/06 13:01:27;;;;;;;1.52;1.15;;;22.80;99.90;;;;;;5012020;28;20484;-76
2023/08/06 13:04:13;;;;;;;2.78;1.70;;;22.80;99.90;;;;;;5001840;28;20050;-78
2023/08/06 13:06:59;;;;;;;3.08;1.33;;;22.80;99.90;;;;;;4994479;28;20177;-78
2023/08/06 13:09:45;;;;;;;3.45;1.30;;;22.70;99.90;;;;;;4968051;28;20089;-78
2023/08/06 13:12:31;;;;;;;2.45;1.40;;;22.60;99.90;;;;;;4993644;28;20048;-75
2023/08/06 13:15:19;;;;;;;1.75;1.33;;;22.80;99.90;;;;;;4992576;28;20070;-75
2023/08/06 13:18:05;;;;;;;;;;;23.10;99.90;;;;;;5007963;28;20049;-75
2023/08/06 13:20:54;;;;;;;2.05;1.30;;;23.20;99.90;;;;;;5014595;28;20348;-74
2023/08/06 13:23:40;;;;;;;1.85;1.30;;;23.50;99.90;;;;;;5025156;28;20053;-75
2023/08/06 13:26:26;;;;;;;1.48;0.95;;;23.40;98.00;;;;;;5015589;28;20136;-75
2023/08/06 13:29:12;;;;;;;2.47;1.45;;;23.50;99.40;;;;;;5015048;28;20038;-75
2023/08/06 13:31:58;;;;;;;1.45;1.13;;;23.70;99.90;;;;;;5014686;28;20037;-75
2023/08/06 13:34:44;;;;;;;1.65;1.27;;;23.80;99.50;;;;;;5015225;28;20053;-75
2023/08/06 13:37:30;;;;;;;1.88;1.20;;;24.00;99.70;;;;;;5020839;28;20045;-74
2023/08/06 13:40:16;;;;;;;1.42;1.13;;;24.20;97.90;;;;;;5015211;28;20428;-74
2023/08/06 13:43:02;;;;;;;2.78;1.33;;;24.30;97.50;;;;;;5014094;28;20142;-74
2023/08/06 13:45:48;;;;;;;1.55;1.10;;;24.20;98.70;;;;;;5014457;28;20477;-76
2023/08/06 13:48:34;;;;;;;3.38;1.40;;;24.10;98.20;;;;;;5027912;28;20099;-75
2023/08/06 13:51:20;;;;;;;2.33;1.40;;;24.30;99.90;;;;;;5002719;28;20052;-75
2023/08/06 13:54:08;;;;;;;2.00;1.15;;;24.20;99.10;;;;;;5013435;28;20369;-75
2023/08/06 13:56:53;;;;;;;2.40;1.70;;;24.30;98.40;;;;;;5010992;28;20045;-74
2023/08/06 13:59:40;;;;;;;4.43;1.40;;;24.20;98.80;;;;;;5013670;28;20037;-74
2023/08/06 14:02:26;;;;;;;2.60;1.35;;;24.30;98.40;;;;;;5015528;28;20072;-75
2023/08/06 14:05:13;;;;;;;3.08;1.60;;;24.40;99.10;;;;;;5001640;28;20143;-75
2023/08/06 14:08:00;;;;;;;1.35;1.20;;;24.70;99.20;;;;;;5013347;28;20037;-75
2023/08/06 14:10:46;;;;;;;3.42;1.40;;;24.90;97.10;;;;;;5013449;28;20132;-75
2023/08/06 14:13:32;;;;;;;5.05;1.50;;;25.20;97.50;;;;;;5026918;28;20042;-74
2023/08/06 14:16:18;;;;;;;1.60;1.30;;;25.20;96.20;;;;;;5016597;28;20069;-75
2023/08/06 14:19:07;;;;;;;2.85;1.35;;;25.60;97.00;;;;;;5011387;28;20180;-75
2023/08/06 14:21:53;;;;;;;1.80;1.40;;;25.90;96.40;;;;;;5010585;28;20857;-76
2023/08/06 14:24:39;;;;;;;1.50;1.13;;;26.10;96.80;;;;;;4994767;28;20414;-74
2023/08/06 14:27:25;;;;;;;2.13;1.40;;;26.20;95.30;;;;;;4982825;28;20041;-75